sensor_id;sensor_type;location;lat;lon;timestamp;P1;durP1;ratioP1;P2;durP2;ratioP2
71343;SDS011;59146;43.850;25.948;2023-04-03T00:01:06;3.05;;;2.58;;
71343;SDS011;59146;43.850;25.948;2023-04-03T00:03:32;6.05;;;2.30;;
71343;SDS011;59146;43.850;25.948;2023-04-03T00:05:58;3.83;;;2.15;;
71343;SDS011;59146;43.850;25.948;2023-04-03T00:08:24;3.03;;;1.75;;
71343;SDS011;59146;43.850;25.948;2023-04-03T00:10:50;3.38;;;1.75;;
71343;SDS011;59146;43.850;25.948;2023-04-03T00:13:16;2.03;;;1.83;;
71343;SDS011;59146;43.850;25.948;2023-04-03T00:15:41;3.05;;;1.90;;
71343;SDS011;59146;43.850;25.948;2023-04-03T00:18:07;2.75;;;2.00;;
71343;SDS011;59146;43.850;25.948;2023-04-03T00:20:34;2.40;;;1.83;;
71343;SDS011;59146;43.850;25.948;2023-04-03T00:22:59;2.28;;;1.67;;
71343;SDS011;59146;43.850;25.948;2023-04-03T00:25:26;2.60;;;1.90;;
71343;SDS011;59146;43.850;25.948;2023-04-03T00:27:52;2.47;;;1.80;;
71343;SDS011;59146;43.850;25.948;2023-04-03T00:30:18;2.95;;;1.60;;
71343;SDS011;59146;43.850;25.948;2023-04-03T00:32:47;3.50;;;2.03;;
71343;SDS011;59146;43.850;25.948;2023-04-03T00:35:13;3.17;;;2.03;;
71343;SDS011;59146;43.850;25.948;2023-04-03T00:37:40;2.20;;;1.73;;
71343;SDS011;59146;43.850;25.948;2023-04-03T00:40:07;2.72;;;1.80;;
71343;SDS011;59146;43.850;25.948;2023-04-03T00:42:33;6.53;;;2.17;;
71343;SDS011;59146;43.850;25.948;2023-04-03T00:47:25;2.50;;;1.98;;
71343;SDS011;59146;43.850;25.948;2023-04-03T00:49:52;3.97;;;3.22;;
71343;SDS011;59146;43.850;25.948;2023-04-03T00:52:19;2.50;;;1.80;;
71343;SDS011;59146;43.850;25.948;2023-04-03T00:54:49;2.13;;;1.88;;
71343;SDS011;59146;43.850;25.948;2023-04-03T00:57:17;3.50;;;2.10;;
71343;SDS011;59146;43.850;25.948;2023-04-03T00:59:43;2.55;;;2.00;;
71343;SDS011;59146;43.850;25.948;2023-04-03T01:02:15;3.83;;;2.60;;
71343;SDS011;59146;43.850;25.948;2023-04-03T01:04:41;2.30;;;2.10;;
71343;SDS011;59146;43.850;25.948;2023-04-03T01:09:33;2.88;;;2.17;;
71343;SDS011;59146;43.850;25.948;2023-04-03T01:14:42;2.80;;;2.40;;
71343;SDS011;59146;43.850;25.948;2023-04-03T01:26:14;2.42;;;2.22;;
71343;SDS011;59146;43.850;25.948;2023-04-03T01:28:40;3.67;;;2.05;;
71343;SDS011;59146;43.850;25.948;2023-04-03T01:33:56;3.45;;;2.15;;
71343;SDS011;59146;43.850;25.948;2023-04-03T01:36:23;3.15;;;2.38;;
71343;SDS011;59146;43.850;25.948;2023-04-03T01:38:50;2.55;;;2.03;;
71343;SDS011;59146;43.850;25.948;2023-04-03T01:41:16;3.30;;;2.20;;
71343;SDS011;59146;43.850;25.948;2023-04-03T01:43:42;5.15;;;2.90;;
71343;SDS011;59146;43.850;25.948;2023-04-03T01:46:08;8.82;;;3.15;;
71343;SDS011;59146;43.850;25.948;2023-04-03T01:48:33;3.97;;;3.05;;
71343;SDS011;59146;43.850;25.948;2023-04-03T01:50:59;3.45;;;3.00;;
71343;SDS011;59146;43.850;25.948;2023-04-03T01:53:25;4.78;;;3.70;;
71343;SDS011;59146;43.850;25.948;2023-04-03T01:55:50;7.18;;;3.33;;
71343;SDS011;59146;43.850;25.948;2023-04-03T01:58:16;3.40;;;3.03;;
71343;SDS011;59146;43.850;25.948;2023-04-03T02:00:41;3.97;;;2.90;;
71343;SDS011;59146;43.850;25.948;2023-04-03T02:03:07;5.65;;;2.95;;
71343;SDS011;59146;43.850;25.948;2023-04-03T02:05:32;3.97;;;2.60;;
71343;SDS011;59146;43.850;25.948;2023-04-03T02:07:58;7.63;;;3.40;;
71343;SDS011;59146;43.850;25.948;2023-04-03T02:10:23;3.15;;;2.40;;
71343;SDS011;59146;43.850;25.948;2023-04-03T02:12:49;5.00;;;2.40;;
71343;SDS011;59146;43.850;25.948;2023-04-03T02:15:15;3.90;;;2.80;;
71343;SDS011;59146;43.850;25.948;2023-04-03T02:17:40;2.80;;;2.60;;
71343;SDS011;59146;43.850;25.948;2023-04-03T02:20:06;4.03;;;3.20;;
71343;SDS011;59146;43.850;25.948;2023-04-03T02:22:32;4.93;;;2.97;;
71343;SDS011;59146;43.850;25.948;2023-04-03T02:24:57;3.08;;;2.78;;
71343;SDS011;59146;43.850;25.948;2023-04-03T02:27:23;3.72;;;3.17;;
71343;SDS011;59146;43.850;25.948;2023-04-03T02:29:48;6.00;;;3.05;;
71343;SDS011;59146;43.850;25.948;2023-04-03T02:32:14;3.60;;;3.30;;
71343;SDS011;59146;43.850;25.948;2023-04-03T02:34:39;7.00;;;3.90;;
71343;SDS011;59146;43.850;25.948;2023-04-03T02:37:05;3.95;;;3.55;;
71343;SDS011;59146;43.850;25.948;2023-04-03T02:39:31;8.75;;;5.00;;
71343;SDS011;59146;43.850;25.948;2023-04-03T02:41:56;7.63;;;5.85;;
71343;SDS011;59146;43.850;25.948;2023-04-03T02:44:22;7.40;;;5.82;;
71343;SDS011;59146;43.850;25.948;2023-04-03T02:46:48;18.48;;;6.85;;
71343;SDS011;59146;43.850;25.948;2023-04-03T02:49:14;8.18;;;6.40;;
71343;SDS011;59146;43.850;25.948;2023-04-03T02:51:40;12.82;;;8.98;;
71343;SDS011;59146;43.850;25.948;2023-04-03T02:54:06;11.60;;;8.60;;
71343;SDS011;59146;43.850;25.948;2023-04-03T02:56:32;13.80;;;8.18;;
71343;SDS011;59146;43.850;25.948;2023-04-03T02:58:58;8.68;;;7.53;;
71343;SDS011;59146;43.850;25.948;2023-04-03T03:01:23;9.88;;;7.97;;
71343;SDS011;59146;43.850;25.948;2023-04-03T03:03:49;10.48;;;7.50;;
71343;SDS011;59146;43.850;25.948;2023-04-03T03:06:15;8.50;;;7.22;;
71343;SDS011;59146;43.850;25.948;2023-04-03T03:08:41;8.00;;;6.50;;
71343;SDS011;59146;43.850;25.948;2023-04-03T03:11:08;11.32;;;8.20;;
71343;SDS011;59146;43.850;25.948;2023-04-03T03:13:34;10.75;;;7.78;;
71343;SDS011;59146;43.850;25.948;2023-04-03T03:16:00;8.45;;;6.45;;
71343;SDS011;59146;43.850;25.948;2023-04-03T03:18:26;6.70;;;5.72;;
71343;SDS011;59146;43.850;25.948;2023-04-03T03:20:53;6.95;;;6.15;;
71343;SDS011;59146;43.850;25.948;2023-04-03T03:23:23;8.90;;;7.30;;
71343;SDS011;59146;43.850;25.948;2023-04-03T03:25:54;11.68;;;8.95;;
71343;SDS011;59146;43.850;25.948;2023-04-03T03:28:21;16.52;;;9.20;;
71343;SDS011;59146;43.850;25.948;2023-04-03T03:30:46;8.10;;;6.78;;
71343;SDS011;59146;43.850;25.948;2023-04-03T03:33:12;5.43;;;4.03;;
71343;SDS011;59146;43.850;25.948;2023-04-03T03:35:37;6.40;;;4.25;;
71343;SDS011;59146;43.850;25.948;2023-04-03T03:38:03;11.13;;;5.43;;
71343;SDS011;59146;43.850;25.948;2023-04-03T03:40:28;6.78;;;5.03;;
71343;SDS011;59146;43.850;25.948;2023-04-03T03:42:53;11.15;;;6.18;;
71343;SDS011;59146;43.850;25.948;2023-04-03T03:45:19;13.43;;;4.75;;
71343;SDS011;59146;43.850;25.948;2023-04-03T03:47:44;7.70;;;4.13;;
71343;SDS011;59146;43.850;25.948;2023-04-03T03:50:10;6.28;;;4.07;;
71343;SDS011;59146;43.850;25.948;2023-04-03T03:52:35;4.95;;;3.97;;
71343;SDS011;59146;43.850;25.948;2023-04-03T03:55:01;6.63;;;4.10;;
71343;SDS011;59146;43.850;25.948;2023-04-03T03:57:26;9.77;;;4.93;;
71343;SDS011;59146;43.850;25.948;2023-04-03T03:59:53;27.15;;;6.72;;
71343;SDS011;59146;43.850;25.948;2023-04-03T04:02:19;10.35;;;5.55;;
71343;SDS011;59146;43.850;25.948;2023-04-03T04:04:44;7.35;;;4.22;;
71343;SDS011;59146;43.850;25.948;2023-04-03T04:07:10;4.45;;;3.90;;
71343;SDS011;59146;43.850;25.948;2023-04-03T04:09:36;6.70;;;4.15;;
71343;SDS011;59146;43.850;25.948;2023-04-03T04:12:01;6.93;;;4.15;;
71343;SDS011;59146;43.850;25.948;2023-04-03T04:14:27;6.03;;;4.22;;
71343;SDS011;59146;43.850;25.948;2023-04-03T04:16:52;9.07;;;4.68;;
71343;SDS011;59146;43.850;25.948;2023-04-03T04:19:17;8.27;;;4.38;;
71343;SDS011;59146;43.850;25.948;2023-04-03T04:21:43;5.55;;;3.97;;
71343;SDS011;59146;43.850;25.948;2023-04-03T04:24:08;7.85;;;4.07;;
71343;SDS011;59146;43.850;25.948;2023-04-03T04:26:34;7.13;;;3.80;;
71343;SDS011;59146;43.850;25.948;2023-04-03T04:28:59;9.25;;;5.32;;
71343;SDS011;59146;43.850;25.948;2023-04-03T04:31:25;14.30;;;9.20;;
71343;SDS011;59146;43.850;25.948;2023-04-03T04:33:52;13.15;;;5.80;;
71343;SDS011;59146;43.850;25.948;2023-04-03T04:36:18;12.60;;;4.35;;
71343;SDS011;59146;43.850;25.948;2023-04-03T04:38:44;6.80;;;3.30;;
71343;SDS011;59146;43.850;25.948;2023-04-03T04:41:09;10.27;;;4.10;;
71343;SDS011;59146;43.850;25.948;2023-04-03T04:43:35;8.40;;;4.68;;
71343;SDS011;59146;43.850;25.948;2023-04-03T04:46:07;9.43;;;4.70;;
71343;SDS011;59146;43.850;25.948;2023-04-03T04:48:35;24.15;;;6.85;;
71343;SDS011;59146;43.850;25.948;2023-04-03T04:51:01;23.45;;;6.00;;
71343;SDS011;59146;43.850;25.948;2023-04-03T04:53:27;13.38;;;5.30;;
71343;SDS011;59146;43.850;25.948;2023-04-03T04:55:53;12.95;;;4.75;;
71343;SDS011;59146;43.850;25.948;2023-04-03T04:58:18;13.60;;;4.43;;
71343;SDS011;59146;43.850;25.948;2023-04-03T05:00:45;44.28;;;6.65;;
71343;SDS011;59146;43.850;25.948;2023-04-03T05:03:10;32.50;;;5.57;;
71343;SDS011;59146;43.850;25.948;2023-04-03T05:05:36;36.15;;;6.10;;
71343;SDS011;59146;43.850;25.948;2023-04-03T05:08:01;21.65;;;5.00;;
71343;SDS011;59146;43.850;25.948;2023-04-03T05:10:27;38.72;;;6.65;;
71343;SDS011;59146;43.850;25.948;2023-04-03T05:12:53;13.57;;;4.18;;
71343;SDS011;59146;43.850;25.948;2023-04-03T05:15:18;10.85;;;4.78;;
71343;SDS011;59146;43.850;25.948;2023-04-03T05:17:44;17.13;;;4.85;;
71343;SDS011;59146;43.850;25.948;2023-04-03T05:20:10;14.10;;;4.68;;
71343;SDS011;59146;43.850;25.948;2023-04-03T05:22:36;11.75;;;4.22;;
71343;SDS011;59146;43.850;25.948;2023-04-03T05:25:01;29.35;;;5.75;;
71343;SDS011;59146;43.850;25.948;2023-04-03T05:27:26;19.70;;;5.53;;
71343;SDS011;59146;43.850;25.948;2023-04-03T05:29:53;10.13;;;5.10;;
71343;SDS011;59146;43.850;25.948;2023-04-03T05:32:20;27.83;;;7.03;;
71343;SDS011;59146;43.850;25.948;2023-04-03T05:34:45;17.05;;;6.93;;
71343;SDS011;59146;43.850;25.948;2023-04-03T05:37:11;24.20;;;7.97;;
71343;SDS011;59146;43.850;25.948;2023-04-03T05:39:36;29.45;;;8.75;;
71343;SDS011;59146;43.850;25.948;2023-04-03T05:42:05;27.25;;;8.02;;
71343;SDS011;59146;43.850;25.948;2023-04-03T05:44:30;19.77;;;7.88;;
71343;SDS011;59146;43.850;25.948;2023-04-03T05:46:56;27.02;;;7.75;;
71343;SDS011;59146;43.850;25.948;2023-04-03T05:49:21;20.13;;;7.75;;
71343;SDS011;59146;43.850;25.948;2023-04-03T05:51:46;20.77;;;8.20;;
71343;SDS011;59146;43.850;25.948;2023-04-03T05:54:13;19.45;;;8.15;;
71343;SDS011;59146;43.850;25.948;2023-04-03T05:56:43;32.08;;;9.30;;
71343;SDS011;59146;43.850;25.948;2023-04-03T05:59:09;27.55;;;10.02;;
71343;SDS011;59146;43.850;25.948;2023-04-03T06:01:35;54.25;;;10.13;;
71343;SDS011;59146;43.850;25.948;2023-04-03T06:04:00;38.72;;;10.13;;
71343;SDS011;59146;43.850;25.948;2023-04-03T06:06:26;25.65;;;9.48;;
71343;SDS011;59146;43.850;25.948;2023-04-03T06:11:32;20.52;;;9.00;;
71343;SDS011;59146;43.850;25.948;2023-04-03T06:13:57;26.48;;;9.63;;
71343;SDS011;59146;43.850;25.948;2023-04-03T06:16:23;22.27;;;8.98;;
71343;SDS011;59146;43.850;25.948;2023-04-03T06:18:49;40.67;;;9.55;;
71343;SDS011;59146;43.850;25.948;2023-04-03T06:21:15;25.30;;;9.65;;
71343;SDS011;59146;43.850;25.948;2023-04-03T06:23:40;17.13;;;8.60;;
71343;SDS011;59146;43.850;25.948;2023-04-03T06:26:06;28.08;;;9.50;;
71343;SDS011;59146;43.850;25.948;2023-04-03T06:28:32;29.35;;;8.85;;
71343;SDS011;59146;43.850;25.948;2023-04-03T06:30:57;33.60;;;9.93;;
71343;SDS011;59146;43.850;25.948;2023-04-03T06:33:23;44.00;;;10.13;;
71343;SDS011;59146;43.850;25.948;2023-04-03T06:35:48;23.20;;;9.15;;
71343;SDS011;59146;43.850;25.948;2023-04-03T06:38:13;14.43;;;7.38;;
71343;SDS011;59146;43.850;25.948;2023-04-03T06:40:39;27.35;;;9.40;;
71343;SDS011;59146;43.850;25.948;2023-04-03T06:43:04;20.90;;;8.60;;
71343;SDS011;59146;43.850;25.948;2023-04-03T06:45:30;25.27;;;8.93;;
71343;SDS011;59146;43.850;25.948;2023-04-03T06:47:56;25.48;;;6.63;;
71343;SDS011;59146;43.850;25.948;2023-04-03T06:50:21;25.30;;;7.85;;
71343;SDS011;59146;43.850;25.948;2023-04-03T06:52:47;13.07;;;7.43;;
71343;SDS011;59146;43.850;25.948;2023-04-03T06:55:12;17.90;;;6.85;;
71343;SDS011;59146;43.850;25.948;2023-04-03T06:57:38;19.58;;;6.63;;
71343;SDS011;59146;43.850;25.948;2023-04-03T07:00:04;16.20;;;5.70;;
71343;SDS011;59146;43.850;25.948;2023-04-03T07:02:30;20.83;;;7.70;;
71343;SDS011;59146;43.850;25.948;2023-04-03T07:04:56;22.38;;;6.25;;
71343;SDS011;59146;43.850;25.948;2023-04-03T07:07:22;5.85;;;4.15;;
71343;SDS011;59146;43.850;25.948;2023-04-03T07:09:47;20.92;;;5.28;;
71343;SDS011;59146;43.850;25.948;2023-04-03T07:12:13;7.68;;;4.05;;
71343;SDS011;59146;43.850;25.948;2023-04-03T07:14:38;4.13;;;3.72;;
71343;SDS011;59146;43.850;25.948;2023-04-03T07:17:04;4.03;;;3.63;;
71343;SDS011;59146;43.850;25.948;2023-04-03T07:19:29;12.00;;;4.13;;
71343;SDS011;59146;43.850;25.948;2023-04-03T07:21:56;10.25;;;3.85;;
71343;SDS011;59146;43.850;25.948;2023-04-03T07:24:22;8.57;;;3.78;;
71343;SDS011;59146;43.850;25.948;2023-04-03T07:26:50;5.07;;;3.60;;
71343;SDS011;59146;43.850;25.948;2023-04-03T07:29:17;6.53;;;3.30;;
71343;SDS011;59146;43.850;25.948;2023-04-03T07:31:43;13.65;;;4.43;;
71343;SDS011;59146;43.850;25.948;2023-04-03T07:34:09;6.90;;;3.30;;
71343;SDS011;59146;43.850;25.948;2023-04-03T07:36:35;6.47;;;3.40;;
71343;SDS011;59146;43.850;25.948;2023-04-03T07:39:01;10.80;;;3.40;;
71343;SDS011;59146;43.850;25.948;2023-04-03T07:41:26;8.00;;;3.65;;
71343;SDS011;59146;43.850;25.948;2023-04-03T07:43:52;7.80;;;3.70;;
71343;SDS011;59146;43.850;25.948;2023-04-03T07:46:17;8.57;;;4.43;;
71343;SDS011;59146;43.850;25.948;2023-04-03T07:48:43;14.30;;;5.32;;
71343;SDS011;59146;43.850;25.948;2023-04-03T07:51:10;7.28;;;3.60;;
71343;SDS011;59146;43.850;25.948;2023-04-03T07:53:35;11.18;;;4.97;;
71343;SDS011;59146;43.850;25.948;2023-04-03T07:56:01;5.80;;;3.78;;
71343;SDS011;59146;43.850;25.948;2023-04-03T07:58:27;7.13;;;4.07;;
71343;SDS011;59146;43.850;25.948;2023-04-03T08:00:53;5.88;;;4.03;;
71343;SDS011;59146;43.850;25.948;2023-04-03T08:03:18;5.05;;;3.63;;
71343;SDS011;59146;43.850;25.948;2023-04-03T08:05:45;9.75;;;4.78;;
71343;SDS011;59146;43.850;25.948;2023-04-03T08:08:12;8.10;;;5.07;;
71343;SDS011;59146;43.850;25.948;2023-04-03T08:10:41;10.82;;;6.18;;
71343;SDS011;59146;43.850;25.948;2023-04-03T08:13:08;12.48;;;7.00;;
71343;SDS011;59146;43.850;25.948;2023-04-03T08:15:34;12.23;;;5.80;;
71343;SDS011;59146;43.850;25.948;2023-04-03T08:18:00;13.52;;;6.35;;
71343;SDS011;59146;43.850;25.948;2023-04-03T08:20:26;14.25;;;6.00;;
71343;SDS011;59146;43.850;25.948;2023-04-03T08:22:52;10.88;;;5.75;;
71343;SDS011;59146;43.850;25.948;2023-04-03T08:25:18;8.90;;;5.43;;
71343;SDS011;59146;43.850;25.948;2023-04-03T08:27:43;7.38;;;5.10;;
71343;SDS011;59146;43.850;25.948;2023-04-03T08:30:09;7.75;;;4.95;;
71343;SDS011;59146;43.850;25.948;2023-04-03T08:32:36;6.93;;;5.07;;
71343;SDS011;59146;43.850;25.948;2023-04-03T08:35:02;6.28;;;4.80;;
71343;SDS011;59146;43.850;25.948;2023-04-03T08:37:28;7.63;;;4.63;;
71343;SDS011;59146;43.850;25.948;2023-04-03T08:39:53;10.38;;;4.47;;
71343;SDS011;59146;43.850;25.948;2023-04-03T08:42:29;7.75;;;4.80;;
71343;SDS011;59146;43.850;25.948;2023-04-03T08:45:19;6.05;;;5.18;;
71343;SDS011;59146;43.850;25.948;2023-04-03T08:47:48;5.38;;;4.68;;
71343;SDS011;59146;43.850;25.948;2023-04-03T08:50:22;5.35;;;4.63;;
71343;SDS011;59146;43.850;25.948;2023-04-03T08:52:58;9.43;;;4.50;;
71343;SDS011;59146;43.850;25.948;2023-04-03T08:58:05;11.63;;;5.68;;
71343;SDS011;59146;43.850;25.948;2023-04-03T09:03:21;6.13;;;4.80;;
71343;SDS011;59146;43.850;25.948;2023-04-03T09:14:22;5.50;;;4.18;;
71343;SDS011;59146;43.850;25.948;2023-04-03T09:16:58;8.15;;;4.53;;
71343;SDS011;59146;43.850;25.948;2023-04-03T09:21:55;7.47;;;4.25;;
71343;SDS011;59146;43.850;25.948;2023-04-03T09:24:22;7.63;;;4.00;;
71343;SDS011;59146;43.850;25.948;2023-04-03T09:26:53;6.05;;;4.40;;
71343;SDS011;59146;43.850;25.948;2023-04-03T09:29:21;10.05;;;4.68;;
71343;SDS011;59146;43.850;25.948;2023-04-03T09:32:01;6.13;;;4.00;;
71343;SDS011;59146;43.850;25.948;2023-04-03T09:34:37;11.70;;;4.50;;
71343;SDS011;59146;43.850;25.948;2023-04-03T09:37:06;10.05;;;4.57;;
71343;SDS011;59146;43.850;25.948;2023-04-03T09:39:32;13.98;;;4.30;;
71343;SDS011;59146;43.850;25.948;2023-04-03T09:42:16;9.25;;;5.18;;
71343;SDS011;59146;43.850;25.948;2023-04-03T09:44:52;9.40;;;5.00;;
71343;SDS011;59146;43.850;25.948;2023-04-03T09:47:24;14.43;;;5.47;;
71343;SDS011;59146;43.850;25.948;2023-04-03T09:50:19;12.40;;;4.63;;
71343;SDS011;59146;43.850;25.948;2023-04-03T09:52:49;13.82;;;5.57;;
71343;SDS011;59146;43.850;25.948;2023-04-03T09:55:20;11.23;;;5.00;;
71343;SDS011;59146;43.850;25.948;2023-04-03T09:57:52;13.40;;;4.75;;
71343;SDS011;59146;43.850;25.948;2023-04-03T10:00:26;9.52;;;4.20;;
71343;SDS011;59146;43.850;25.948;2023-04-03T10:02:57;14.32;;;5.88;;
71343;SDS011;59146;43.850;25.948;2023-04-03T10:10:39;11.70;;;4.90;;
71343;SDS011;59146;43.850;25.948;2023-04-03T10:13:07;9.00;;;4.28;;
71343;SDS011;59146;43.850;25.948;2023-04-03T10:15:36;5.25;;;3.88;;
71343;SDS011;59146;43.850;25.948;2023-04-03T10:18:42;14.70;;;3.58;;
71343;SDS011;59146;43.850;25.948;2023-04-03T10:21:11;8.20;;;4.05;;
71343;SDS011;59146;43.850;25.948;2023-04-03T10:40:52;6.78;;;3.35;;
71343;SDS011;59146;43.850;25.948;2023-04-03T10:51:42;7.03;;;3.50;;
71343;SDS011;59146;43.850;25.948;2023-04-03T10:56:48;8.63;;;3.17;;
71343;SDS011;59146;43.850;25.948;2023-04-03T11:01:53;8.65;;;2.65;;
71343;SDS011;59146;43.850;25.948;2023-04-03T11:04:40;3.63;;;2.75;;
71343;SDS011;59146;43.850;25.948;2023-04-03T11:07:15;10.18;;;2.67;;
71343;SDS011;59146;43.850;25.948;2023-04-03T11:09:55;11.25;;;3.10;;
71343;SDS011;59146;43.850;25.948;2023-04-03T11:12:36;9.00;;;3.20;;
71343;SDS011;59146;43.850;25.948;2023-04-03T11:15:11;4.10;;;2.30;;
71343;SDS011;59146;43.850;25.948;2023-04-03T11:17:43;4.25;;;2.92;;
71343;SDS011;59146;43.850;25.948;2023-04-03T11:20:18;3.90;;;2.63;;
71343;SDS011;59146;43.850;25.948;2023-04-03T11:22:56;6.85;;;2.88;;
71343;SDS011;59146;43.850;25.948;2023-04-03T11:25:26;3.53;;;2.92;;
71343;SDS011;59146;43.850;25.948;2023-04-03T11:28:02;5.15;;;3.20;;
71343;SDS011;59146;43.850;25.948;2023-04-03T11:36:30;8.20;;;2.60;;
71343;SDS011;59146;43.850;25.948;2023-04-03T11:38:56;14.23;;;3.13;;
71343;SDS011;59146;43.850;25.948;2023-04-03T11:41:25;8.80;;;2.65;;
71343;SDS011;59146;43.850;25.948;2023-04-03T11:44:01;4.22;;;2.45;;
71343;SDS011;59146;43.850;25.948;2023-04-03T12:08:28;3.72;;;2.40;;
71343;SDS011;59146;43.850;25.948;2023-04-03T12:16:28;10.80;;;3.17;;
71343;SDS011;59146;43.850;25.948;2023-04-03T12:29:13;12.82;;;2.80;;
71343;SDS011;59146;43.850;25.948;2023-04-03T12:31:46;7.00;;;2.53;;
71343;SDS011;59146;43.850;25.948;2023-04-03T12:34:33;21.15;;;3.67;;
71343;SDS011;59146;43.850;25.948;2023-04-03T12:37:24;5.47;;;2.92;;
71343;SDS011;59146;43.850;25.948;2023-04-03T12:40:15;5.10;;;2.50;;
71343;SDS011;59146;43.850;25.948;2023-04-03T12:45:26;5.53;;;3.45;;
71343;SDS011;59146;43.850;25.948;2023-04-03T12:47:53;7.05;;;3.20;;
71343;SDS011;59146;43.850;25.948;2023-04-03T12:52:57;6.13;;;3.25;;
71343;SDS011;59146;43.850;25.948;2023-04-03T12:55:26;8.70;;;3.30;;
71343;SDS011;59146;43.850;25.948;2023-04-03T12:57:52;5.97;;;3.15;;
71343;SDS011;59146;43.850;25.948;2023-04-03T13:02:53;5.35;;;3.17;;
71343;SDS011;59146;43.850;25.948;2023-04-03T13:05:18;7.05;;;3.17;;
71343;SDS011;59146;43.850;25.948;2023-04-03T13:07:53;5.32;;;3.15;;
71343;SDS011;59146;43.850;25.948;2023-04-03T13:10:23;4.90;;;3.33;;
71343;SDS011;59146;43.850;25.948;2023-04-03T13:15:28;8.25;;;3.42;;
71343;SDS011;59146;43.850;25.948;2023-04-03T13:18:04;4.70;;;3.35;;
71343;SDS011;59146;43.850;25.948;2023-04-03T13:20:31;10.27;;;4.63;;
71343;SDS011;59146;43.850;25.948;2023-04-03T13:23:02;15.73;;;4.43;;
71343;SDS011;59146;43.850;25.948;2023-04-03T13:25:34;13.55;;;5.50;;
71343;SDS011;59146;43.850;25.948;2023-04-03T13:28:04;8.30;;;3.78;;
71343;SDS011;59146;43.850;25.948;2023-04-03T13:30:33;10.75;;;4.15;;
71343;SDS011;59146;43.850;25.948;2023-04-03T13:33:02;11.07;;;5.00;;
71343;SDS011;59146;43.850;25.948;2023-04-03T13:35:36;10.05;;;4.90;;
71343;SDS011;59146;43.850;25.948;2023-04-03T13:38:06;8.63;;;4.68;;
71343;SDS011;59146;43.850;25.948;2023-04-03T13:43:26;7.55;;;4.00;;
71343;SDS011;59146;43.850;25.948;2023-04-03T13:46:03;8.05;;;4.63;;
71343;SDS011;59146;43.850;25.948;2023-04-03T13:48:36;9.10;;;4.32;;
71343;SDS011;59146;43.850;25.948;2023-04-03T13:53:41;6.43;;;4.32;;
71343;SDS011;59146;43.850;25.948;2023-04-03T13:56:09;9.52;;;4.63;;
71343;SDS011;59146;43.850;25.948;2023-04-03T13:59:18;7.07;;;4.45;;
71343;SDS011;59146;43.850;25.948;2023-04-03T14:01:34;15.02;;;6.18;;
71343;SDS011;59146;43.850;25.948;2023-04-03T14:04:18;12.43;;;5.93;;
71343;SDS011;59146;43.850;25.948;2023-04-03T14:06:44;9.25;;;5.63;;
71343;SDS011;59146;43.850;25.948;2023-04-03T14:09:11;7.82;;;4.95;;
71343;SDS011;59146;43.850;25.948;2023-04-03T14:11:37;9.52;;;5.15;;
71343;SDS011;59146;43.850;25.948;2023-04-03T14:14:06;11.73;;;5.93;;
71343;SDS011;59146;43.850;25.948;2023-04-03T14:16:38;8.20;;;5.30;;
71343;SDS011;59146;43.850;25.948;2023-04-03T14:19:06;9.57;;;5.32;;
71343;SDS011;59146;43.850;25.948;2023-04-03T14:21:31;7.90;;;5.55;;
71343;SDS011;59146;43.850;25.948;2023-04-03T14:23:57;10.88;;;6.00;;
71343;SDS011;59146;43.850;25.948;2023-04-03T14:26:23;9.82;;;5.63;;
71343;SDS011;59146;43.850;25.948;2023-04-03T14:28:52;8.00;;;5.80;;
71343;SDS011;59146;43.850;25.948;2023-04-03T14:31:19;13.48;;;5.93;;
71343;SDS011;59146;43.850;25.948;2023-04-03T14:33:45;9.35;;;6.43;;
71343;SDS011;59146;43.850;25.948;2023-04-03T14:36:15;7.53;;;6.10;;
71343;SDS011;59146;43.850;25.948;2023-04-03T14:38:41;9.52;;;6.28;;
71343;SDS011;59146;43.850;25.948;2023-04-03T14:41:07;8.68;;;6.97;;
71343;SDS011;59146;43.850;25.948;2023-04-03T14:43:37;11.80;;;6.18;;
71343;SDS011;59146;43.850;25.948;2023-04-03T14:46:03;12.38;;;6.45;;
71343;SDS011;59146;43.850;25.948;2023-04-03T14:48:29;9.90;;;6.03;;
71343;SDS011;59146;43.850;25.948;2023-04-03T14:50:55;9.38;;;6.13;;
71343;SDS011;59146;43.850;25.948;2023-04-03T14:53:20;10.07;;;5.53;;
71343;SDS011;59146;43.850;25.948;2023-04-03T14:55:51;9.02;;;6.15;;
71343;SDS011;59146;43.850;25.948;2023-04-03T14:58:18;8.05;;;6.25;;
71343;SDS011;59146;43.850;25.948;2023-04-03T15:00:45;9.18;;;5.50;;
71343;SDS011;59146;43.850;25.948;2023-04-03T15:03:18;11.48;;;6.57;;
71343;SDS011;59146;43.850;25.948;2023-04-03T15:05:46;10.35;;;6.20;;
71343;SDS011;59146;43.850;25.948;2023-04-03T15:08:20;8.13;;;6.32;;
71343;SDS011;59146;43.850;25.948;2023-04-03T15:10:47;9.52;;;7.05;;
71343;SDS011;59146;43.850;25.948;2023-04-03T15:13:13;10.02;;;7.10;;
71343;SDS011;59146;43.850;25.948;2023-04-03T15:15:39;9.90;;;6.38;;
71343;SDS011;59146;43.850;25.948;2023-04-03T15:18:05;9.55;;;7.18;;
71343;SDS011;59146;43.850;25.948;2023-04-03T15:20:31;15.07;;;7.00;;
71343;SDS011;59146;43.850;25.948;2023-04-03T15:22:58;11.80;;;7.38;;
71343;SDS011;59146;43.850;25.948;2023-04-03T15:25:29;10.77;;;6.47;;
71343;SDS011;59146;43.850;25.948;2023-04-03T15:27:55;10.55;;;6.75;;
71343;SDS011;59146;43.850;25.948;2023-04-03T15:30:21;11.52;;;7.63;;
71343;SDS011;59146;43.850;25.948;2023-04-03T15:32:47;13.60;;;8.43;;
71343;SDS011;59146;43.850;25.948;2023-04-03T15:35:13;10.45;;;7.90;;
71343;SDS011;59146;43.850;25.948;2023-04-03T15:37:39;14.65;;;8.68;;
71343;SDS011;59146;43.850;25.948;2023-04-03T15:40:05;13.40;;;9.40;;
71343;SDS011;59146;43.850;25.948;2023-04-03T15:42:32;13.73;;;8.88;;
71343;SDS011;59146;43.850;25.948;2023-04-03T15:44:57;12.18;;;8.65;;
71343;SDS011;59146;43.850;25.948;2023-04-03T15:47:24;12.70;;;8.60;;
71343;SDS011;59146;43.850;25.948;2023-04-03T15:49:50;13.45;;;8.38;;
71343;SDS011;59146;43.850;25.948;2023-04-03T15:52:16;11.38;;;8.48;;
71343;SDS011;59146;43.850;25.948;2023-04-03T15:54:41;16.73;;;8.95;;
71343;SDS011;59146;43.850;25.948;2023-04-03T15:57:07;12.05;;;9.02;;
71343;SDS011;59146;43.850;25.948;2023-04-03T15:59:32;12.77;;;9.38;;
71343;SDS011;59146;43.850;25.948;2023-04-03T16:01:58;16.42;;;9.43;;
71343;SDS011;59146;43.850;25.948;2023-04-03T16:04:26;19.10;;;9.27;;
71343;SDS011;59146;43.850;25.948;2023-04-03T16:06:52;17.80;;;9.88;;
71343;SDS011;59146;43.850;25.948;2023-04-03T16:09:18;15.52;;;8.80;;
71343;SDS011;59146;43.850;25.948;2023-04-03T16:11:44;15.18;;;9.55;;
71343;SDS011;59146;43.850;25.948;2023-04-03T16:14:09;12.90;;;9.15;;
71343;SDS011;59146;43.850;25.948;2023-04-03T16:16:35;21.02;;;9.80;;
71343;SDS011;59146;43.850;25.948;2023-04-03T16:19:01;15.57;;;9.80;;
71343;SDS011;59146;43.850;25.948;2023-04-03T16:21:27;13.07;;;8.88;;
71343;SDS011;59146;43.850;25.948;2023-04-03T16:23:53;17.65;;;9.90;;
71343;SDS011;59146;43.850;25.948;2023-04-03T16:26:18;16.27;;;9.75;;
71343;SDS011;59146;43.850;25.948;2023-04-03T16:28:45;12.25;;;9.75;;
71343;SDS011;59146;43.850;25.948;2023-04-03T16:31:10;16.55;;;8.80;;
71343;SDS011;59146;43.850;25.948;2023-04-03T16:33:36;15.55;;;9.65;;
71343;SDS011;59146;43.850;25.948;2023-04-03T16:36:03;18.33;;;10.02;;
71343;SDS011;59146;43.850;25.948;2023-04-03T16:38:29;18.08;;;10.52;;
71343;SDS011;59146;43.850;25.948;2023-04-03T16:40:55;19.85;;;11.00;;
71343;SDS011;59146;43.850;25.948;2023-04-03T16:43:24;13.77;;;10.20;;
71343;SDS011;59146;43.850;25.948;2023-04-03T16:45:51;15.88;;;10.65;;